sensor_id;sensor_type;location;lat;lon;timestamp;temperature;humidity
4090;DHT22;2059;48.538;12.146;2023-04-09T00:01:42;7.90;99.90
4090;DHT22;2059;48.538;12.146;2023-04-09T00:30:38;7.50;99.90
4090;DHT22;2059;48.538;12.146;2023-04-09T00:35:40;7.10;99.90
4090;DHT22;2059;48.538;12.146;2023-04-09T00:40:42;7.40;99.90
4090;DHT22;2059;48.538;12.146;2023-04-09T00:45:45;7.40;99.90
4090;DHT22;2059;48.538;12.146;2023-04-09T00:50:47;7.20;99.90
4090;DHT22;2059;48.538;12.146;2023-04-09T00:55:49;7.10;99.90
4090;DHT22;2059;48.538;12.146;2023-04-09T01:00:52;7.50;99.90
4090;DHT22;2059;48.538;12.146;2023-04-09T01:06:01;7.60;99.90
4090;DHT22;2059;48.538;12.146;2023-04-09T01:11:08;7.60;99.90
4090;DHT22;2059;48.538;12.146;2023-04-09T01:16:18;7.70;99.90
4090;DHT22;2059;48.538;12.146;2023-04-09T01:21:26;7.70;99.90
4090;DHT22;2059;48.538;12.146;2023-04-09T01:26:40;7.30;99.90
4090;DHT22;2059;48.538;12.146;2023-04-09T01:31:48;7.60;99.90
4090;DHT22;2059;48.538;12.146;2023-04-09T01:36:53;7.60;99.90
4090;DHT22;2059;48.538;12.146;2023-04-09T01:41:55;7.60;99.90
4090;DHT22;2059;48.538;12.146;2023-04-09T01:46:59;7.60;99.90
4090;DHT22;2059;48.538;12.146;2023-04-09T01:52:02;7.40;99.90
4090;DHT22;2059;48.538;12.146;2023-04-09T01:57:03;7.50;99.90
4090;DHT22;2059;48.538;12.146;2023-04-09T02:02:10;7.20;99.90
4090;DHT22;2059;48.538;12.146;2023-04-09T02:07:17;7.10;99.90
4090;DHT22;2059;48.538;12.146;2023-04-09T02:12:22;6.90;99.90
4090;DHT22;2059;48.538;12.146;2023-04-09T02:17:26;6.90;99.90
4090;DHT22;2059;48.538;12.146;2023-04-09T02:22:28;6.60;99.90
4090;DHT22;2059;48.538;12.146;2023-04-09T02:27:30;6.30;99.90
4090;DHT22;2059;48.538;12.146;2023-04-09T02:32:33;6.50;99.90
4090;DHT22;2059;48.538;12.146;2023-04-09T02:37:35;6.40;99.90
4090;DHT22;2059;48.538;12.146;2023-04-09T02:42:37;6.50;99.90
4090;DHT22;2059;48.538;12.146;2023-04-09T02:47:40;6.40;99.90
4090;DHT22;2059;48.538;12.146;2023-04-09T02:52:45;6.40;99.90
4090;DHT22;2059;48.538;12.146;2023-04-09T02:57:46;6.40;99.90
4090;DHT22;2059;48.538;12.146;2023-04-09T03:02:49;6.30;99.90
4090;DHT22;2059;48.538;12.146;2023-04-09T03:07:53;6.40;99.90
4090;DHT22;2059;48.538;12.146;2023-04-09T03:12:55;6.60;99.90
4090;DHT22;2059;48.538;12.146;2023-04-09T03:17:58;6.60;99.90
4090;DHT22;2059;48.538;12.146;2023-04-09T03:23:00;6.60;99.90
4090;DHT22;2059;48.538;12.146;2023-04-09T03:28:02;6.70;99.90
4090;DHT22;2059;48.538;12.146;2023-04-09T03:33:05;6.80;99.90
4090;DHT22;2059;48.538;12.146;2023-04-09T03:38:06;6.90;99.90
4090;DHT22;2059;48.538;12.146;2023-04-09T03:43:08;6.80;99.90
4090;DHT22;2059;48.538;12.146;2023-04-09T03:48:11;6.50;99.90
4090;DHT22;2059;48.538;12.146;2023-04-09T03:53:13;6.40;99.90
4090;DHT22;2059;48.538;12.146;2023-04-09T03:58:15;6.40;99.90
4090;DHT22;2059;48.538;12.146;2023-04-09T04:03:18;6.30;99.90
4090;DHT22;2059;48.538;12.146;2023-04-09T04:08:19;6.10;99.90
4090;DHT22;2059;48.538;12.146;2023-04-09T04:13:21;6.00;99.90
4090;DHT22;2059;48.538;12.146;2023-04-09T04:18:24;5.90;99.90
4090;DHT22;2059;48.538;12.146;2023-04-09T04:23:26;5.90;99.90
4090;DHT22;2059;48.538;12.146;2023-04-09T04:28:28;5.70;99.90
4090;DHT22;2059;48.538;12.146;2023-04-09T04:33:31;6.00;99.90
4090;DHT22;2059;48.538;12.146;2023-04-09T04:38:33;6.20;99.90
4090;DHT22;2059;48.538;12.146;2023-04-09T04:43:35;6.20;99.90
4090;DHT22;2059;48.538;12.146;2023-04-09T04:48:38;5.90;99.90
4090;DHT22;2059;48.538;12.146;2023-04-09T04:53:39;5.60;99.90
4090;DHT22;2059;48.538;12.146;2023-04-09T04:58:41;5.70;99.90
4090;DHT22;2059;48.538;12.146;2023-04-09T05:03:44;5.70;99.90
4090;DHT22;2059;48.538;12.146;2023-04-09T05:08:46;5.70;99.90
4090;DHT22;2059;48.538;12.146;2023-04-09T05:13:48;5.70;99.90
4090;DHT22;2059;48.538;12.146;2023-04-09T05:18:51;5.50;99.90
4090;DHT22;2059;48.538;12.146;2023-04-09T05:23:53;5.60;99.90
4090;DHT22;2059;48.538;12.146;2023-04-09T05:28:55;5.90;99.90
4090;DHT22;2059;48.538;12.146;2023-04-09T05:33:58;5.80;99.90
4090;DHT22;2059;48.538;12.146;2023-04-09T05:39:00;6.10;99.90
4090;DHT22;2059;48.538;12.146;2023-04-09T05:44:02;6.30;99.90
4090;DHT22;2059;48.538;12.146;2023-04-09T05:49:05;6.50;99.90
4090;DHT22;2059;48.538;12.146;2023-04-09T05:54:07;6.40;99.90
4090;DHT22;2059;48.538;12.146;2023-04-09T05:59:08;6.30;99.90
4090;DHT22;2059;48.538;12.146;2023-04-09T06:04:12;6.90;99.90
4090;DHT22;2059;48.538;12.146;2023-04-09T06:09:14;6.90;99.90
4090;DHT22;2059;48.538;12.146;2023-04-09T06:14:16;7.00;99.90
4090;DHT22;2059;48.538;12.146;2023-04-09T06:19:19;7.00;99.90
4090;DHT22;2059;48.538;12.146;2023-04-09T06:24:21;7.00;99.90
4090;DHT22;2059;48.538;12.146;2023-04-09T06:29:22;6.70;99.90
4090;DHT22;2059;48.538;12.146;2023-04-09T06:34:26;6.50;99.90
4090;DHT22;2059;48.538;12.146;2023-04-09T06:39:28;6.70;99.90
4090;DHT22;2059;48.538;12.146;2023-04-09T06:44:32;6.50;99.90
4090;DHT22;2059;48.538;12.146;2023-04-09T06:49:35;7.00;99.90
4090;DHT22;2059;48.538;12.146;2023-04-09T06:54:37;7.50;99.90
4090;DHT22;2059;48.538;12.146;2023-04-09T06:59:39;8.20;99.90
4090;DHT22;2059;48.538;12.146;2023-04-09T07:04:42;8.70;99.90
4090;DHT22;2059;48.538;12.146;2023-04-09T07:09:43;8.70;99.90
4090;DHT22;2059;48.538;12.146;2023-04-09T07:14:45;8.60;99.90
4090;DHT22;2059;48.538;12.146;2023-04-09T07:19:48;9.20;99.90
4090;DHT22;2059;48.538;12.146;2023-04-09T07:24:51;9.30;99.90
4090;DHT22;2059;48.538;12.146;2023-04-09T07:29:55;9.60;99.50
4090;DHT22;2059;48.538;12.146;2023-04-09T07:34:58;9.70;99.10
4090;DHT22;2059;48.538;12.146;2023-04-09T07:40:02;9.60;99.80
4090;DHT22;2059;48.538;12.146;2023-04-09T07:45:05;9.90;98.70
4090;DHT22;2059;48.538;12.146;2023-04-09T07:50:09;10.00;98.20
4090;DHT22;2059;48.538;12.146;2023-04-09T07:55:11;10.50;97.60
4090;DHT22;2059;48.538;12.146;2023-04-09T08:00:13;10.60;97.00
4090;DHT22;2059;48.538;12.146;2023-04-09T08:05:17;10.40;96.80
4090;DHT22;2059;48.538;12.146;2023-04-09T08:10:18;10.40;97.20
4090;DHT22;2059;48.538;12.146;2023-04-09T08:15:20;10.50;97.00
4090;DHT22;2059;48.538;12.146;2023-04-09T08:20:24;11.30;96.50
4090;DHT22;2059;48.538;12.146;2023-04-09T08:25:25;11.80;95.60
4090;DHT22;2059;48.538;12.146;2023-04-09T08:30:27;12.30;94.90
4090;DHT22;2059;48.538;12.146;2023-04-09T08:35:30;12.20;94.80
4090;DHT22;2059;48.538;12.146;2023-04-09T08:40:33;11.80;94.90
4090;DHT22;2059;48.538;12.146;2023-04-09T08:45:35;12.20;94.60
4090;DHT22;2059;48.538;12.146;2023-04-09T08:50:39;12.30;93.70
4090;DHT22;2059;48.538;12.146;2023-04-09T08:55:44;11.90;94.00
4090;DHT22;2059;48.538;12.146;2023-04-09T09:00:46;11.80;94.30
4090;DHT22;2059;48.538;12.146;2023-04-09T09:05:49;11.90;94.10
4090;DHT22;2059;48.538;12.146;2023-04-09T09:10:51;11.40;94.90
4090;DHT22;2059;48.538;12.146;2023-04-09T09:15:54;11.60;94.70
4090;DHT22;2059;48.538;12.146;2023-04-09T09:21:09;11.70;94.70
4090;DHT22;2059;48.538;12.146;2023-04-09T09:26:12;12.10;94.40
4090;DHT22;2059;48.538;12.146;2023-04-09T09:31:15;11.90;94.20
4090;DHT22;2059;48.538;12.146;2023-04-09T09:36:31;12.00;94.10
4090;DHT22;2059;48.538;12.146;2023-04-09T09:41:33;12.00;93.90
4090;DHT22;2059;48.538;12.146;2023-04-09T09:46:37;12.00;93.40
4090;DHT22;2059;48.538;12.146;2023-04-09T09:51:40;11.90;93.50
4090;DHT22;2059;48.538;12.146;2023-04-09T09:56:43;11.80;93.30
4090;DHT22;2059;48.538;12.146;2023-04-09T10:01:47;11.60;93.70
4090;DHT22;2059;48.538;12.146;2023-04-09T10:06:54;11.40;94.10
4090;DHT22;2059;48.538;12.146;2023-04-09T10:11:58;11.50;93.60
4090;DHT22;2059;48.538;12.146;2023-04-09T10:17:01;12.50;93.60
4090;DHT22;2059;48.538;12.146;2023-04-09T10:22:08;13.30;91.80
4090;DHT22;2059;48.538;12.146;2023-04-09T10:27:12;13.90;91.40
4090;DHT22;2059;48.538;12.146;2023-04-09T10:32:18;14.30;90.50
4090;DHT22;2059;48.538;12.146;2023-04-09T10:37:24;14.20;89.60
4090;DHT22;2059;48.538;12.146;2023-04-09T10:42:31;13.60;89.10
4090;DHT22;2059;48.538;12.146;2023-04-09T10:47:34;13.30;90.00
4090;DHT22;2059;48.538;12.146;2023-04-09T10:52:39;13.10;90.70
4090;DHT22;2059;48.538;12.146;2023-04-09T10:57:42;12.60;91.50
4090;DHT22;2059;48.538;12.146;2023-04-09T11:08:27;12.40;92.20
4090;DHT22;2059;48.538;12.146;2023-04-09T11:13:30;12.40;92.60
4090;DHT22;2059;48.538;12.146;2023-04-09T11:18:33;12.70;92.00
4090;DHT22;2059;48.538;12.146;2023-04-09T11:23:37;13.10;91.90
4090;DHT22;2059;48.538;12.146;2023-04-09T11:28:41;13.70;90.60
4090;DHT22;2059;48.538;12.146;2023-04-09T11:33:45;14.30;90.40
4090;DHT22;2059;48.538;12.146;2023-04-09T11:38:48;14.40;90.30
4090;DHT22;2059;48.538;12.146;2023-04-09T11:43:51;14.50;90.30
4090;DHT22;2059;48.538;12.146;2023-04-09T11:48:53;15.20;88.00
4090;DHT22;2059;48.538;12.146;2023-04-09T11:54:00;15.10;87.50
4090;DHT22;2059;48.538;12.146;2023-04-09T11:59:02;14.70;87.40
4090;DHT22;2059;48.538;12.146;2023-04-09T12:04:04;14.70;86.60
4090;DHT22;2059;48.538;12.146;2023-04-09T12:09:08;14.90;86.30
4090;DHT22;2059;48.538;12.146;2023-04-09T12:14:14;14.60;86.60
4090;DHT22;2059;48.538;12.146;2023-04-09T12:19:16;13.90;87.30
4090;DHT22;2059;48.538;12.146;2023-04-09T12:24:22;13.60;88.10
4090;DHT22;2059;48.538;12.146;2023-04-09T12:29:24;13.20;89.80
4090;DHT22;2059;48.538;12.146;2023-04-09T12:34:28;13.10;90.10
4090;DHT22;2059;48.538;12.146;2023-04-09T12:39:31;13.50;89.50
4090;DHT22;2059;48.538;12.146;2023-04-09T12:44:33;14.00;87.90
4090;DHT22;2059;48.538;12.146;2023-04-09T12:49:36;14.00;88.00
4090;DHT22;2059;48.538;12.146;2023-04-09T12:54:39;15.30;88.00
4090;DHT22;2059;48.538;12.146;2023-04-09T12:59:41;16.40;83.70
4090;DHT22;2059;48.538;12.146;2023-04-09T13:04:43;16.10;82.80
4090;DHT22;2059;48.538;12.146;2023-04-09T13:09:49;15.50;82.80
4090;DHT22;2059;48.538;12.146;2023-04-09T13:14:53;14.90;84.70
4090;DHT22;2059;48.538;12.146;2023-04-09T13:19:55;15.00;85.20
4090;DHT22;2059;48.538;12.146;2023-04-09T13:24:58;15.20;85.20
4090;DHT22;2059;48.538;12.146;2023-04-09T13:30:00;15.10;83.30
4090;DHT22;2059;48.538;12.146;2023-04-09T13:35:02;15.00;82.90
4090;DHT22;2059;48.538;12.146;2023-04-09T13:40:06;14.90;81.90
4090;DHT22;2059;48.538;12.146;2023-04-09T13:45:09;15.10;81.70
4090;DHT22;2059;48.538;12.146;2023-04-09T13:50:11;15.00;82.70
4090;DHT22;2059;48.538;12.146;2023-04-09T13:55:17;15.30;80.50
4090;DHT22;2059;48.538;12.146;2023-04-09T14:00:19;15.10;79.60
4090;DHT22;2059;48.538;12.146;2023-04-09T14:05:21;14.80;80.30
4090;DHT22;2059;48.538;12.146;2023-04-09T14:10:24;14.70;80.80
4090;DHT22;2059;48.538;12.146;2023-04-09T14:15:27;15.30;79.30
4090;DHT22;2059;48.538;12.146;2023-04-09T14:20:28;15.20;79.10
4090;DHT22;2059;48.538;12.146;2023-04-09T14:25:31;15.50;79.20
4090;DHT22;2059;48.538;12.146;2023-04-09T14:30:33;15.40;77.80
4090;DHT22;2059;48.538;12.146;2023-04-09T14:35:35;15.00;78.30
4090;DHT22;2059;48.538;12.146;2023-04-09T14:40:38;14.10;79.70
4090;DHT22;2059;48.538;12.146;2023-04-09T14:45:40;14.50;79.10
4090;DHT22;2059;48.538;12.146;2023-04-09T14:50:42;14.50;78.70
4090;DHT22;2059;48.538;12.146;2023-04-09T14:55:45;14.80;80.20
4090;DHT22;2059;48.538;12.146;2023-04-09T15:00:47;15.10;78.20
4090;DHT22;2059;48.538;12.146;2023-04-09T15:05:49;15.70;76.30
4090;DHT22;2059;48.538;12.146;2023-04-09T15:10:52;15.60;76.10
4090;DHT22;2059;48.538;12.146;2023-04-09T15:15:54;15.10;76.40
4090;DHT22;2059;48.538;12.146;2023-04-09T15:20:56;15.20;77.50
4090;DHT22;2059;48.538;12.146;2023-04-09T15:25:59;15.70;76.50
4090;DHT22;2059;48.538;12.146;2023-04-09T15:31:01;17.20;74.10
4090;DHT22;2059;48.538;12.146;2023-04-09T15:36:03;18.10;70.70
4090;DHT22;2059;48.538;12.146;2023-04-09T15:41:06;17.80;70.80
4090;DHT22;2059;48.538;12.146;2023-04-09T15:46:10;18.80;68.70
4090;DHT22;2059;48.538;12.146;2023-04-09T15:51:12;21.30;64.30
4090;DHT22;2059;48.538;12.146;2023-04-09T15:56:15;20.00;63.10
4090;DHT22;2059;48.538;12.146;2023-04-09T16:01:16;18.20;65.40
4090;DHT22;2059;48.538;12.146;2023-04-09T16:06:19;17.80;65.40
4090;DHT22;2059;48.538;12.146;2023-04-09T16:11:22;17.20;67.70
4090;DHT22;2059;48.538;12.146;2023-04-09T16:16:24;16.90;68.10
4090;DHT22;2059;48.538;12.146;2023-04-09T16:21:25;16.40;67.80
4090;DHT22;2059;48.538;12.146;2023-04-09T16:26:29;15.90;69.50
4090;DHT22;2059;48.538;12.146;2023-04-09T16:31:31;15.80;69.90
4090;DHT22;2059;48.538;12.146;2023-04-09T16:36:33;15.80;70.10
4090;DHT22;2059;48.538;12.146;2023-04-09T16:41:37;15.20;70.90
4090;DHT22;2059;48.538;12.146;2023-04-09T16:46:39;14.70;72.30
4090;DHT22;2059;48.538;12.146;2023-04-09T16:51:42;14.50;72.50
4090;DHT22;2059;48.538;12.146;2023-04-09T16:56:46;14.00;73.30
4090;DHT22;2059;48.538;12.146;2023-04-09T17:01:49;13.80;74.10
4090;DHT22;2059;48.538;12.146;2023-04-09T17:06:51;13.80;74.90
4090;DHT22;2059;48.538;12.146;2023-04-09T17:11:54;13.70;75.10
4090;DHT22;2059;48.538;12.146;2023-04-09T17:16:55;13.80;74.70
4090;DHT22;2059;48.538;12.146;2023-04-09T17:21:57;13.30;75.80
4090;DHT22;2059;48.538;12.146;2023-04-09T17:27:00;13.40;76.20
4090;DHT22;2059;48.538;12.146;2023-04-09T17:32:04;13.50;76.10
4090;DHT22;2059;48.538;12.146;2023-04-09T17:37:06;13.40;76.20
4090;DHT22;2059;48.538;12.146;2023-04-09T17:42:09;13.10;76.90
4090;DHT22;2059;48.538;12.146;2023-04-09T17:47:11;12.90;77.30
4090;DHT22;2059;48.538;12.146;2023-04-09T17:52:13;12.70;78.10
4090;DHT22;2059;48.538;12.146;2023-04-09T17:57:17;12.60;78.50
4090;DHT22;2059;48.538;12.146;2023-04-09T18:02:19;12.40;79.40
4090;DHT22;2059;48.538;12.146;2023-04-09T18:07:21;12.10;80.60
4090;DHT22;2059;48.538;12.146;2023-04-09T18:12:25;12.20;82.50
4090;DHT22;2059;48.538;12.146;2023-04-09T18:17:27;11.90;82.80
4090;DHT22;2059;48.538;12.146;2023-04-09T18:22:28;11.80;83.50
4090;DHT22;2059;48.538;12.146;2023-04-09T18:27:32;11.80;84.20
4090;DHT22;2059;48.538;12.146;2023-04-09T18:32:34;11.80;84.20
4090;DHT22;2059;48.538;12.146;2023-04-09T18:37:36;11.80;84.80
4090;DHT22;2059;48.538;12.146;2023-04-09T18:42:39;11.80;85.20
4090;DHT22;2059;48.538;12.146;2023-04-09T18:47:41;11.80;85.90
4090;DHT22;2059;48.538;12.146;2023-04-09T18:52:43;11.80;86.20
4090;DHT22;2059;48.538;12.146;2023-04-09T18:57:46;11.60;86.50
4090;DHT22;2059;48.538;12.146;2023-04-09T19:02:48;11.60;87.10
4090;DHT22;2059;48.538;12.146;2023-04-09T19:07:50;11.60;87.50
4090;DHT22;2059;48.538;12.146;2023-04-09T19:12:53;11.50;88.20
4090;DHT22;2059;48.538;12.146;2023-04-09T19:17:55;11.40;88.50
4090;DHT22;2059;48.538;12.146;2023-04-09T19:22:57;11.30;88.70
4090;DHT22;2059;48.538;12.146;2023-04-09T19:28:00;11.30;88.50
